Sea Reliance — WEOB — position and weather

sailwx.info

Track history (hours):
 
Tides and Currents Weather Stations Pressure Air Temp Water Temp Dewpoint Dewpoint Depression Visibility Wind Speed Wind Dir Waves Ship Positions

Sea Reliance

Owner: Intrepid Ship Management, Seattle, WA. More information available from US FCC via Universal Licensing System and Coast Guard Vessel Documentation Center.

Last reported at 2018-Jun-23 06:30 UTC. Time now 2018-Jun-23 06:29 UTC.
Position N 38°06' W 122°16'.

Type: Ship. MMSI: 369567000.

Date/timePositionNaut miles runAvg speedWind from/ knotsBaromVisibWave heightAir tempDewpointWater temp
2018-Jun-23 06:30N 38°06' W 122°16'2 4.4
2018-Jun-23 06:00N 38°04' W 122°15'3 6.5
2018-Jun-23 05:30N 38°03' W 122°11'2 4.2
2018-Jun-23 04:58N 38°02' W 122°08'0 0.0
2018-Jun-23 04:28N 38°02' W 122°08'0 0.0
2018-Jun-23 03:58N 38°02' W 122°08'0 0.0
2018-Jun-23 03:22N 38°02' W 122°08'1 0.0
2018-Jun-22 00:30N 38°03' W 122°08'2 4.0
2018-Jun-21 23:59N 38°03' W 122°10'4 8.8
2018-Jun-21 23:30N 38°04' W 122°15'5 9.5
2018-Jun-21 23:00N 38°02' W 122°21'510.0
2018-Jun-21 22:30N 37°59' W 122°26'5 9.3
2018-Jun-21 22:00N 37°54' W 122°26'5 9.3
2018-Jun-21 21:30N 37°50' W 122°24'5 9.5
2018-Jun-21 21:00N 37°46' W 122°20'0 0.0
2018-Jun-21 20:29N 37°46' W 122°20'0 0.0
2018-Jun-21 19:59N 37°46' W 122°20'0 0.0
2018-Jun-21 19:29N 37°46' W 122°20'0 0.0
2018-Jun-21 18:59N 37°46' W 122°20'0 0.0
2018-Jun-21 18:29N 37°46' W 122°20'0 0.0
2018-Jun-21 17:59N 37°46' W 122°20'0 0.0
2018-Jun-21 17:29N 37°46' W 122°20'0 0.0
2018-Jun-21 16:59N 37°46' W 122°20'0 0.0
2018-Jun-21 16:29N 37°46' W 122°20'0 0.0
2018-Jun-21 15:59N 37°46' W 122°20'0 0.0
2018-Jun-21 15:29N 37°46' W 122°20'0 0.3
2018-Jun-21 14:59N 37°46' W 122°20'0 0.2
2018-Jun-21 14:29N 37°46' W 122°20'0 0.0
2018-Jun-21 13:59N 37°46' W 122°20'1 1.8
2018-Jun-21 13:30N 37°46' W 122°21'4 8.2
2018-Jun-21 13:00N 37°49' W 122°25'612.5
2018-Jun-21 12:30N 37°47' W 122°33'612.0
2018-Jun-21 12:00N 37°45' W 122°40'5 8.9
2018-Jun-21 11:28N 37°42' W 122°45'4 9.5
2018-Jun-21 11:00N 37°40' W 122°49'5 9.6
2018-Jun-21 10:30N 37°37' W 122°54'5 9.5
2018-Jun-21 10:00N 37°34' W 122°59'6 9.6
2018-Jun-21 09:21N 37°30' W 123°05'3 9.4
2018-Jun-21 08:59N 37°28' W 123°08'9 9.3
2018-Jun-21 08:02N 37°23' W 123°17'0 9.1
2018-Jun-21 08:00N 37°23' W 123°18'33 8.0
2018-Jun-21 03:54N 37°02' W 123°49'3 6.4
2018-Jun-21 03:29N 37°00' W 123°52'8 6.5
2018-Jun-21 02:13N 37°05' W 124°00'2 8.0
2018-Jun-21 01:56N 37°07' W 124°02'16 6.0
2018-Jun-20 23:16N 37°12' W 123°43'2 8.1
2018-Jun-20 23:00N 37°12' W 123°40'611.1
2018-Jun-20 22:29N 37°16' W 123°35'711.4
2018-Jun-20 21:54N 37°20' W 123°28'511.4
2018-Jun-20 21:26N 37°23' W 123°23'511.4
2018-Jun-20 21:00N 37°26' W 123°18'611.2
2018-Jun-20 20:30N 37°29' W 123°12'511.1
2018-Jun-20 20:00N 37°32' W 123°07'611.2
2018-Jun-20 19:30N 37°36' W 123°01'611.3
2018-Jun-20 19:00N 37°39' W 122°55'611.5
2018-Jun-20 18:30N 37°42' W 122°49'611.1
2018-Jun-20 17:57N 37°45' W 122°42'511.1
2018-Jun-20 17:30N 37°47' W 122°36'713.5
2018-Jun-20 17:00N 37°49' W 122°28'4 8.4
2018-Jun-20 16:30N 37°53' W 122°26'610.9
2018-Jun-20 16:00N 37°59' W 122°26'510.0
2018-Jun-20 15:30N 38°02' W 122°22'4 8.9
2018-Jun-20 15:00N 38°04' W 122°16'4 8.1
2018-Jun-20 14:30N 38°03' W 122°11'3 0.2
2018-Jun-19 21:28N 38°02' W 122°09'4 7.7
2018-Jun-19 20:54N 38°04' W 122°13'3 7.8
2018-Jun-19 20:30N 38°03' W 122°18'4 8.3
2018-Jun-19 20:00N 38°02' W 122°22'4 8.5
2018-Jun-19 19:30N 37°59' W 122°26'4 8.1
2018-Jun-19 19:00N 37°55' W 122°27'4 8.1
2018-Jun-19 18:30N 37°51' W 122°25'4 7.8
2018-Jun-19 18:00N 37°49' W 122°29'5 9.4
2018-Jun-19 17:30N 37°47' W 122°34'510.4
2018-Jun-19 17:00N 37°45' W 122°40'510.1
2018-Jun-19 16:30N 37°42' W 122°45'610.2
2018-Jun-19 15:55N 37°38' W 122°51'410.3
2018-Jun-19 15:29N 37°36' W 122°56'610.2
2018-Jun-19 14:51N 37°32' W 123°03'16 9.5
2018-Jun-19 13:11N 37°19' W 123°14'2 8.5
2018-Jun-19 12:58N 37°17' W 123°14'4 8.7
2018-Jun-19 12:30N 37°13' W 123°14'4 8.4
2018-Jun-19 11:58N 37°09' W 123°14'4 8.5
2018-Jun-19 11:30N 37°05' W 123°14'4 8.7
2018-Jun-19 11:00N 37°00' W 123°14'4 8.7
2018-Jun-19 10:30N 36°56' W 123°14'4 8.7
2018-Jun-19 10:00N 36°52' W 123°14'4 8.6
2018-Jun-19 09:30N 36°47' W 123°14'4 8.7
2018-Jun-19 09:00N 36°43' W 123°14'4 8.6
2018-Jun-19 08:30N 36°39' W 123°15'4 8.6
2018-Jun-19 08:00N 36°34' W 123°14'5 9.1
2018-Jun-19 07:30N 36°30' W 123°15'6 8.5
2018-Jun-19 06:47N 36°24' W 123°12'6 8.5
2018-Jun-19 06:05N 36°19' W 123°09'1 8.6
2018-Jun-19 06:00N 36°18' W 123°08'4 7.5
2018-Jun-19 05:25N 36°14' W 123°06'4 8.4
2018-Jun-19 05:00N 36°11' W 123°05'4 8.4
2018-Jun-19 04:30N 36°07' W 123°02'4 8.3
2018-Jun-19 04:00N 36°03' W 123°00'4 8.5
2018-Jun-19 03:30N 35°59' W 122°58'4 8.7
2018-Jun-19 03:00N 35°56' W 122°56'4 8.6
2018-Jun-19 02:30N 35°52' W 122°53'4 8.7
2018-Jun-19 02:00N 35°48' W 122°50'4 8.4
2018-Jun-19 01:30N 35°44' W 122°47'4 8.1
2018-Jun-19 01:00N 35°41' W 122°45'4 8.4
2018-Jun-19 00:29N 35°37' W 122°42'4 8.6
2018-Jun-19 00:00N 35°34' W 122°40'4 8.6
2018-Jun-18 23:30N 35°30' W 122°37'4 8.4
2018-Jun-18 23:00N 35°26' W 122°34'4 8.4
2018-Jun-18 22:30N 35°23' W 122°31'5 8.5
2018-Jun-18 21:54N 35°18' W 122°28'4 8.6
2018-Jun-18 21:26N 35°15' W 122°25'5 8.4
2018-Jun-18 20:50N 35°11' W 122°23'60 8.3
2018-Jun-18 13:35N 34°19' W 121°45'1 8.5
2018-Jun-18 13:30N 34°18' W 121°45'4 8.4
2018-Jun-18 13:00N 34°16' W 121°40'510.0
2018-Jun-18 12:30N 34°13' W 121°36'510.0
2018-Jun-18 12:00N 34°10' W 121°31'5 9.8
2018-Jun-18 11:30N 34°07' W 121°26'5 9.6
2018-Jun-18 11:00N 34°05' W 121°21'5 9.2
2018-Jun-18 10:29N 34°02' W 121°16'4 9.3
2018-Jun-18 10:00N 33°59' W 121°12'5 9.4
2018-Jun-18 09:30N 33°56' W 121°07'5 9.5
2018-Jun-18 09:00N 33°54' W 121°03'5 9.8
2018-Jun-18 08:30N 33°51' W 120°58'5 9.4
2018-Jun-18 08:00N 33°48' W 120°53'5 9.4
2018-Jun-18 07:30N 33°46' W 120°48'510.0
2018-Jun-18 07:00N 33°46' W 120°42'510.1
2018-Jun-18 06:30N 33°45' W 120°36'510.1
2018-Jun-18 06:00N 33°45' W 120°30'510.2
2018-Jun-18 05:30N 33°45' W 120°24'5 9.9
2018-Jun-18 05:00N 33°45' W 120°18'510.2
2018-Jun-18 04:29N 33°44' W 120°12'510.0
2018-Jun-18 04:00N 33°44' W 120°06'510.1
2018-Jun-18 03:30N 33°43' W 119°60'510.2
2018-Jun-18 03:00N 33°43' W 119°54'510.3
2018-Jun-18 02:30N 33°43' W 119°48'510.9
2018-Jun-18 02:00N 33°43' W 119°41'611.4
2018-Jun-18 01:30N 33°42' W 119°34'611.3
2018-Jun-18 01:00N 33°42' W 119°27'611.4
2018-Jun-18 00:30N 33°42' W 119°21'611.4
2018-Jun-18 00:00N 33°41' W 119°14'510.6
2018-Jun-17 23:30N 33°41' W 119°07'510.5
2018-Jun-17 23:00N 33°41' W 119°01'510.8
2018-Jun-17 22:30N 33°40' W 118°55'2010.4
2018-Jun-17 20:32N 33°39' W 118°30'110.3
2018-Jun-17 20:29N 33°38' W 118°29'510.5
2018-Jun-17 20:00N 33°38' W 118°23'510.1
2018-Jun-17 19:30N 33°38' W 118°17'5 9.1
2018-Jun-17 19:01N 33°42' W 118°15'3 5.3
2018-Jun-17 18:30N 33°45' W 118°16'1 1.5
2018-Jun-17 18:00N 33°46' W 118°16'0 0.0
2018-Jun-17 17:29N 33°46' W 118°16'0 0.0
2018-Jun-17 16:59N 33°46' W 118°16'0 0.0
2018-Jun-17 16:29N 33°46' W 118°16'0 0.0
2018-Jun-17 15:59N 33°46' W 118°16'0 0.0
2018-Jun-17 15:23N 33°46' W 118°16'0 0.0
2018-Jun-17 14:59N 33°46' W 118°16'0 0.0
2018-Jun-17 14:29N 33°46' W 118°16'0 0.0
2018-Jun-17 13:59N 33°46' W 118°16'0 0.0
2018-Jun-17 13:29N 33°46' W 118°16'0 0.0
2018-Jun-17 12:59N 33°46' W 118°16'0 0.0
2018-Jun-17 12:29N 33°46' W 118°16'0 0.0
2018-Jun-17 11:59N 33°46' W 118°16'0 0.0
2018-Jun-17 11:29N 33°46' W 118°16'0 0.0
2018-Jun-17 10:59N 33°46' W 118°16'0 0.0
2018-Jun-17 10:29N 33°46' W 118°16'0 0.0
2018-Jun-17 09:56N 33°46' W 118°16'0 0.0
2018-Jun-17 09:29N 33°46' W 118°16'0 0.0
2018-Jun-17 08:59N 33°46' W 118°16'0 0.0
2018-Jun-17 08:29N 33°46' W 118°16'0 0.0
2018-Jun-17 07:59N 33°46' W 118°16'0 0.0
2018-Jun-17 07:26N 33°46' W 118°16'0 0.0
2018-Jun-17 06:59N 33°46' W 118°16'0 0.0
2018-Jun-17 06:29N 33°46' W 118°16'0 0.0
2018-Jun-17 05:59N 33°46' W 118°16'0 0.0
2018-Jun-17 05:29N 33°46' W 118°16'0 0.0
2018-Jun-17 04:59N 33°46' W 118°16'0 0.0
2018-Jun-17 04:29N 33°46' W 118°16'0 0.0
2018-Jun-17 03:59N 33°46' W 118°16'0 0.0
2018-Jun-17 03:29N 33°46' W 118°16'0 0.0
2018-Jun-17 02:59N 33°46' W 118°16'0 0.0
2018-Jun-17 02:28N 33°46' W 118°16'0 0.0
2018-Jun-17 01:58N 33°46' W 118°16'0 0.0
2018-Jun-17 01:28N 33°46' W 118°16'0 0.0
2018-Jun-17 00:58N 33°46' W 118°16'0 0.0
2018-Jun-17 00:28N 33°46' W 118°16'0 0.0
2018-Jun-16 23:58N 33°46' W 118°16'0 0.0
2018-Jun-16 23:28N 33°46' W 118°16'0 0.0
2018-Jun-16 22:58N 33°46' W 118°16'0 0.0
2018-Jun-16 22:28N 33°46' W 118°16'0 0.0
2018-Jun-16 21:58N 33°46' W 118°16'0 0.0
2018-Jun-16 21:19N 33°46' W 118°16'0 0.0
2018-Jun-16 20:55N 33°46' W 118°16'0 0.0
2018-Jun-16 20:28N 33°46' W 118°16'0 0.0
2018-Jun-16 19:58N 33°46' W 118°16'0 0.0
2018-Jun-16 19:28N 33°46' W 118°16'0 0.0
2018-Jun-16 18:58N 33°46' W 118°16'0 0.0
2018-Jun-16 18:30N 33°46' W 118°16'0 0.9
2018-Jun-16 18:00N 33°45' W 118°16'1 1.2
2018-Jun-16 17:30N 33°45' W 118°17'0 0.0
2018-Jun-16 16:59N 33°45' W 118°17'0 0.0
2018-Jun-16 16:29N 33°45' W 118°17'0 0.0
2018-Jun-16 15:59N 33°45' W 118°17'0 0.0
2018-Jun-16 15:29N 33°45' W 118°17'0 0.0
2018-Jun-16 14:56N 33°45' W 118°17'0 0.0
2018-Jun-16 14:29N 33°45' W 118°17'0 0.0
2018-Jun-16 13:56N 33°45' W 118°17'0 0.0
2018-Jun-16 13:29N 33°45' W 118°17'0 0.0
2018-Jun-16 12:56N 33°45' W 118°17'0 0.0
2018-Jun-16 12:29N 33°45' W 118°17'0 0.0
2018-Jun-16 11:59N 33°45' W 118°17'0 0.0
2018-Jun-16 11:29N 33°45' W 118°17'0 0.0
2018-Jun-16 10:59N 33°45' W 118°17'0 0.0
2018-Jun-16 10:29N 33°45' W 118°17'0 0.0
2018-Jun-16 09:59N 33°45' W 118°17'0 0.0
2018-Jun-16 09:29N 33°45' W 118°17'0 0.0
2018-Jun-16 08:59N 33°45' W 118°17'0 0.0
2018-Jun-16 08:29N 33°45' W 118°17'0 0.0
2018-Jun-16 07:59N 33°45' W 118°17'0 0.0
2018-Jun-16 07:29N 33°45' W 118°17'0 0.0
2018-Jun-16 06:59N 33°45' W 118°17'0 0.0
2018-Jun-16 06:26N 33°45' W 118°17'0 0.0
2018-Jun-16 05:59N 33°45' W 118°17'0 0.0
2018-Jun-16 05:29N 33°45' W 118°17'0 0.0
2018-Jun-16 04:59N 33°45' W 118°17'0 0.0
2018-Jun-16 04:29N 33°45' W 118°17'0 0.0
2018-Jun-16 03:59N 33°45' W 118°17'0 0.0
2018-Jun-16 03:29N 33°45' W 118°17'0 0.0
2018-Jun-16 02:59N 33°45' W 118°17'0 0.0
2018-Jun-16 02:29N 33°45' W 118°17'0 0.0
2018-Jun-16 01:59N 33°45' W 118°17'0 0.0
2018-Jun-16 01:29N 33°45' W 118°17'0 0.0
2018-Jun-16 00:59N 33°45' W 118°17'0 0.0
2018-Jun-16 00:29N 33°45' W 118°17'0 0.0
2018-Jun-15 23:56N 33°45' W 118°17'0 0.0
2018-Jun-15 23:29N 33°45' W 118°17'0 0.0
2018-Jun-15 22:59N 33°45' W 118°17'0 0.0
2018-Jun-15 22:29N 33°45' W 118°17'0 0.0
2018-Jun-15 21:59N 33°45' W 118°17'0 0.0
2018-Jun-15 21:29N 33°45' W 118°17'0 0.0
2018-Jun-15 20:59N 33°45' W 118°17'0 0.0
2018-Jun-15 20:29N 33°45' W 118°17'0 0.0
2018-Jun-15 19:59N 33°45' W 118°17'0 0.0
2018-Jun-15 19:30N 33°45' W 118°17'0 0.1
2018-Jun-15 19:00N 33°45' W 118°17'1 1.3
2018-Jun-15 18:31N 33°45' W 118°16'3 5.1
2018-Jun-15 18:00N 33°43' W 118°15'2 3.9
2018-Jun-15 17:28N 33°42' W 118°12'0 0.0
2018-Jun-15 16:55N 33°42' W 118°12'0 0.0
2018-Jun-15 16:25N 33°42' W 118°12'0 0.0
2018-Jun-15 15:58N 33°42' W 118°12'0 0.0
2018-Jun-15 15:25N 33°42' W 118°12'0 0.1
2018-Jun-15 14:58N 33°42' W 118°12'0 0.0
2018-Jun-15 14:28N 33°42' W 118°12'0 0.0
2018-Jun-15 13:58N 33°42' W 118°12'0 0.1
2018-Jun-15 13:22N 33°42' W 118°12'0 0.0
2018-Jun-15 12:55N 33°42' W 118°12'0 0.0
2018-Jun-15 12:28N 33°42' W 118°12'0 0.1
2018-Jun-15 11:58N 33°42' W 118°12'0 0.0
2018-Jun-15 11:28N 33°42' W 118°12'0 0.1
2018-Jun-15 10:58N 33°42' W 118°12'0 0.2
2018-Jun-15 10:28N 33°42' W 118°12'0 0.1
2018-Jun-15 09:58N 33°42' W 118°12'0 0.1
2018-Jun-15 09:28N 33°42' W 118°12'0 0.1
2018-Jun-15 08:58N 33°42' W 118°12'0 0.1
2018-Jun-15 08:28N 33°42' W 118°12'0 0.1
2018-Jun-15 07:58N 33°42' W 118°12'0 0.0
2018-Jun-15 07:25N 33°42' W 118°12'0 0.1
2018-Jun-15 06:55N 33°42' W 118°12'0 0.1
2018-Jun-15 06:25N 33°42' W 118°12'0 0.0
2018-Jun-15 05:58N 33°42' W 118°12'0 0.1
2018-Jun-15 05:28N 33°42' W 118°12'0 0.9
2018-Jun-15 05:00N 33°42' W 118°12'510.0
2018-Jun-15 04:30N 33°38' W 118°15'611.1
2018-Jun-15 03:55N 33°36' W 118°23'511.7
2018-Jun-15 03:30N 33°36' W 118°29'711.8
2018-Jun-15 02:54N 33°36' W 118°37'711.9
2018-Jun-15 02:20N 33°37' W 118°45'511.8
2018-Jun-15 01:56N 33°37' W 118°51'512.4
2018-Jun-15 01:30N 33°37' W 118°57'611.7
2018-Jun-15 01:00N 33°38' W 119°04'611.4
2018-Jun-15 00:30N 33°38' W 119°11'611.4
2018-Jun-15 00:00N 33°39' W 119°18'611.2
2018-Jun-14 23:30N 33°39' W 119°25'611.2
2018-Jun-14 23:00N 33°40' W 119°31'5 8.6
2018-Jun-14 22:24N 33°40' W 119°37'410.9
2018-Jun-14 22:00N 33°41' W 119°43'510.7
2018-Jun-14 21:30N 33°41' W 119°49'611.3
2018-Jun-14 20:59N 33°42' W 119°56'611.9
2018-Jun-14 20:30N 33°42' W 120°03'611.4
2018-Jun-14 19:59N 33°43' W 120°10'611.6
2018-Jun-14 19:30N 33°43' W 120°17'611.6
2018-Jun-14 19:00N 33°44' W 120°24'611.3
2018-Jun-14 18:30N 33°44' W 120°30'611.2
2018-Jun-14 18:00N 33°45' W 120°37'510.9
2018-Jun-14 17:30N 33°45' W 120°43'611.4
2018-Jun-14 17:00N 33°46' W 120°50'611.4
2018-Jun-14 16:30N 33°49' W 120°56'510.9
2018-Jun-14 16:00N 33°53' W 121°01'511.1
2018-Jun-14 15:30N 33°56' W 121°07'611.1
2018-Jun-14 15:00N 33°59' W 121°12'611.2
2018-Jun-14 14:30N 34°02' W 121°18'611.3
2018-Jun-14 14:00N 34°05' W 121°24'611.4
2018-Jun-14 13:30N 34°08' W 121°29'611.3
2018-Jun-14 13:00N 34°12' W 121°34'611.2
2018-Jun-14 12:30N 34°15' W 121°40'611.2
2018-Jun-14 12:00N 34°19' W 121°45'711.2
2018-Jun-14 11:22N 34°24' W 121°50'411.7
2018-Jun-14 11:00N 34°28' W 121°53'611.5
2018-Jun-14 10:30N 34°33' W 121°56'611.4
2018-Jun-14 10:00N 34°38' W 122°00'711.2
2018-Jun-14 09:24N 34°44' W 122°04'511.0
2018-Jun-14 09:00N 34°47' W 122°07'3711.3
2018-Jun-14 05:41N 35°20' W 122°30'1711.0
2018-Jun-14 04:08N 35°34' W 122°41'1211.4
2018-Jun-14 03:07N 35°44' W 122°48'511.5
2018-Jun-14 02:40N 35°49' W 122°51'311.5
2018-Jun-14 02:27N 35°51' W 122°52'9310.9
2018-Jun-13 17:55N 37°23' W 123°11'410.9
2018-Jun-13 17:30N 37°27' W 123°09'710.9
2018-Jun-13 16:51N 37°33' W 123°05'410.0
2018-Jun-13 16:30N 37°36' W 123°01'510.2
2018-Jun-13 16:00N 37°38' W 122°56'910.2
2018-Jun-13 15:09N 37°43' W 122°47'1 9.8
2018-Jun-13 15:00N 37°44' W 122°45'5 9.8
2018-Jun-13 14:30N 37°46' W 122°40'510.1
2018-Jun-13 14:00N 37°47' W 122°34'510.9
2018-Jun-13 13:30N 37°50' W 122°28'3 6.9
2018-Jun-13 13:00N 37°53' W 122°26'610.9
2018-Jun-13 12:30N 37°59' W 122°26'611.4
2018-Jun-13 11:59N 38°03' W 122°21'511.1
2018-Jun-13 11:30N 38°04' W 122°14'4 9.0
2018-Jun-13 11:00N 38°02' W 122°09'  
Track history (hours):
 
Tides and Currents Weather Stations Pressure Air Temp Water Temp Dewpoint Dewpoint Depression Visibility Wind Speed Wind Dir Waves Ship Positions

Sea Reliance

Owner: Intrepid Ship Management, Seattle, WA. More information available from US FCC via Universal Licensing System and Coast Guard Vessel Documentation Center.

Last reported at 2018-Jun-23 06:30 UTC. Time now 2018-Jun-23 06:29 UTC.
Position N 38°06' W 122°16'.

Type: Ship. MMSI: 369567000.

Date/timePositionNaut miles runAvg speedWind from/ knotsBaromVisibWave heightAir tempDewpointWater temp
2018-Jun-23 06:30N 38°06' W 122°16'2 4.4
2018-Jun-23 06:00N 38°04' W 122°15'3 6.5
2018-Jun-23 05:30N 38°03' W 122°11'2 4.2
2018-Jun-23 04:58N 38°02' W 122°08'0 0.0
2018-Jun-23 04:28N 38°02' W 122°08'0 0.0
2018-Jun-23 03:58N 38°02' W 122°08'0 0.0
2018-Jun-23 03:22N 38°02' W 122°08'1 0.0
2018-Jun-22 00:30N 38°03' W 122°08'2 4.0
2018-Jun-21 23:59N 38°03' W 122°10'4 8.8
2018-Jun-21 23:30N 38°04' W 122°15'5 9.5
2018-Jun-21 23:00N 38°02' W 122°21'510.0
2018-Jun-21 22:30N 37°59' W 122°26'5 9.3
2018-Jun-21 22:00N 37°54' W 122°26'5 9.3
2018-Jun-21 21:30N 37°50' W 122°24'5 9.5
2018-Jun-21 21:00N 37°46' W 122°20'0 0.0
2018-Jun-21 20:29N 37°46' W 122°20'0 0.0
2018-Jun-21 19:59N 37°46' W 122°20'0 0.0
2018-Jun-21 19:29N 37°46' W 122°20'0 0.0
2018-Jun-21 18:59N 37°46' W 122°20'0 0.0
2018-Jun-21 18:29N 37°46' W 122°20'0 0.0
2018-Jun-21 17:59N 37°46' W 122°20'0 0.0
2018-Jun-21 17:29N 37°46' W 122°20'0 0.0
2018-Jun-21 16:59N 37°46' W 122°20'0 0.0
2018-Jun-21 16:29N 37°46' W 122°20'0 0.0
2018-Jun-21 15:59N 37°46' W 122°20'0 0.0
2018-Jun-21 15:29N 37°46' W 122°20'0 0.3
2018-Jun-21 14:59N 37°46' W 122°20'0 0.2
2018-Jun-21 14:29N 37°46' W 122°20'0 0.0
2018-Jun-21 13:59N 37°46' W 122°20'1 1.8
2018-Jun-21 13:30N 37°46' W 122°21'4 8.2
2018-Jun-21 13:00N 37°49' W 122°25'612.5
2018-Jun-21 12:30N 37°47' W 122°33'612.0
2018-Jun-21 12:00N 37°45' W 122°40'5 8.9
2018-Jun-21 11:28N 37°42' W 122°45'4 9.5
2018-Jun-21 11:00N 37°40' W 122°49'5 9.6
2018-Jun-21 10:30N 37°37' W 122°54'5 9.5
2018-Jun-21 10:00N 37°34' W 122°59'6 9.6
2018-Jun-21 09:21N 37°30' W 123°05'3 9.4
2018-Jun-21 08:59N 37°28' W 123°08'9 9.3
2018-Jun-21 08:02N 37°23' W 123°17'0 9.1
2018-Jun-21 08:00N 37°23' W 123°18'33 8.0
2018-Jun-21 03:54N 37°02' W 123°49'3 6.4
2018-Jun-21 03:29N 37°00' W 123°52'8 6.5
2018-Jun-21 02:13N 37°05' W 124°00'2 8.0
2018-Jun-21 01:56N 37°07' W 124°02'16 6.0
2018-Jun-20 23:16N 37°12' W 123°43'2 8.1
2018-Jun-20 23:00N 37°12' W 123°40'611.1
2018-Jun-20 22:29N 37°16' W 123°35'711.4
2018-Jun-20 21:54N 37°20' W 123°28'511.4
2018-Jun-20 21:26N 37°23' W 123°23'511.4
2018-Jun-20 21:00N 37°26' W 123°18'611.2
2018-Jun-20 20:30N 37°29' W 123°12'511.1
2018-Jun-20 20:00N 37°32' W 123°07'611.2
2018-Jun-20 19:30N 37°36' W 123°01'611.3
2018-Jun-20 19:00N 37°39' W 122°55'611.5
2018-Jun-20 18:30N 37°42' W 122°49'611.1
2018-Jun-20 17:57N 37°45' W 122°42'511.1
2018-Jun-20 17:30N 37°47' W 122°36'713.5
2018-Jun-20 17:00N 37°49' W 122°28'4 8.4
2018-Jun-20 16:30N 37°53' W 122°26'610.9
2018-Jun-20 16:00N 37°59' W 122°26'510.0
2018-Jun-20 15:30N 38°02' W 122°22'4 8.9
2018-Jun-20 15:00N 38°04' W 122°16'4 8.1
2018-Jun-20 14:30N 38°03' W 122°11'3 0.2
2018-Jun-19 21:28N 38°02' W 122°09'4 7.7
2018-Jun-19 20:54N 38°04' W 122°13'3 7.8
2018-Jun-19 20:30N 38°03' W 122°18'4 8.3
2018-Jun-19 20:00N 38°02' W 122°22'4 8.5
2018-Jun-19 19:30N 37°59' W 122°26'4 8.1
2018-Jun-19 19:00N 37°55' W 122°27'4 8.1
2018-Jun-19 18:30N 37°51' W 122°25'4 7.8
2018-Jun-19 18:00N 37°49' W 122°29'5 9.4
2018-Jun-19 17:30N 37°47' W 122°34'510.4
2018-Jun-19 17:00N 37°45' W 122°40'510.1
2018-Jun-19 16:30N 37°42' W 122°45'610.2
2018-Jun-19 15:55N 37°38' W 122°51'410.3
2018-Jun-19 15:29N 37°36' W 122°56'610.2
2018-Jun-19 14:51N 37°32' W 123°03'16 9.5
2018-Jun-19 13:11N 37°19' W 123°14'2 8.5
2018-Jun-19 12:58N 37°17' W 123°14'4 8.7
2018-Jun-19 12:30N 37°13' W 123°14'4 8.4
2018-Jun-19 11:58N 37°09' W 123°14'4 8.5
2018-Jun-19 11:30N 37°05' W 123°14'4 8.7
2018-Jun-19 11:00N 37°00' W 123°14'4 8.7
2018-Jun-19 10:30N 36°56' W 123°14'4 8.7
2018-Jun-19 10:00N 36°52' W 123°14'4 8.6
2018-Jun-19 09:30N 36°47' W 123°14'4 8.7
2018-Jun-19 09:00N 36°43' W 123°14'4 8.6
2018-Jun-19 08:30N 36°39' W 123°15'4 8.6
2018-Jun-19 08:00N 36°34' W 123°14'5 9.1
2018-Jun-19 07:30N 36°30' W 123°15'6 8.5
2018-Jun-19 06:47N 36°24' W 123°12'6 8.5
2018-Jun-19 06:05N 36°19' W 123°09'1 8.6
2018-Jun-19 06:00N 36°18' W 123°08'4 7.5
2018-Jun-19 05:25N 36°14' W 123°06'4 8.4
2018-Jun-19 05:00N 36°11' W 123°05'4 8.4
2018-Jun-19 04:30N 36°07' W 123°02'4 8.3
2018-Jun-19 04:00N 36°03' W 123°00'4 8.5
2018-Jun-19 03:30N 35°59' W 122°58'4 8.7
2018-Jun-19 03:00N 35°56' W 122°56'4 8.6
2018-Jun-19 02:30N 35°52' W 122°53'4 8.7
2018-Jun-19 02:00N 35°48' W 122°50'4 8.4
2018-Jun-19 01:30N 35°44' W 122°47'4 8.1
2018-Jun-19 01:00N 35°41' W 122°45'4 8.4
2018-Jun-19 00:29N 35°37' W 122°42'4 8.6
2018-Jun-19 00:00N 35°34' W 122°40'4 8.6
2018-Jun-18 23:30N 35°30' W 122°37'4 8.4
2018-Jun-18 23:00N 35°26' W 122°34'4 8.4
2018-Jun-18 22:30N 35°23' W 122°31'5 8.5
2018-Jun-18 21:54N 35°18' W 122°28'4 8.6
2018-Jun-18 21:26N 35°15' W 122°25'5 8.4
2018-Jun-18 20:50N 35°11' W 122°23'60 8.3
2018-Jun-18 13:35N 34°19' W 121°45'1 8.5
2018-Jun-18 13:30N 34°18' W 121°45'4 8.4
2018-Jun-18 13:00N 34°16' W 121°40'510.0
2018-Jun-18 12:30N 34°13' W 121°36'510.0
2018-Jun-18 12:00N 34°10' W 121°31'5 9.8
2018-Jun-18 11:30N 34°07' W 121°26'5 9.6
2018-Jun-18 11:00N 34°05' W 121°21'5 9.2
2018-Jun-18 10:29N 34°02' W 121°16'4 9.3
2018-Jun-18 10:00N 33°59' W 121°12'5 9.4
2018-Jun-18 09:30N 33°56' W 121°07'5 9.5
2018-Jun-18 09:00N 33°54' W 121°03'5 9.8
2018-Jun-18 08:30N 33°51' W 120°58'5 9.4
2018-Jun-18 08:00N 33°48' W 120°53'5 9.4
2018-Jun-18 07:30N 33°46' W 120°48'510.0
2018-Jun-18 07:00N 33°46' W 120°42'510.1
2018-Jun-18 06:30N 33°45' W 120°36'510.1
2018-Jun-18 06:00N 33°45' W 120°30'510.2
2018-Jun-18 05:30N 33°45' W 120°24'5 9.9
2018-Jun-18 05:00N 33°45' W 120°18'510.2
2018-Jun-18 04:29N 33°44' W 120°12'510.0
2018-Jun-18 04:00N 33°44' W 120°06'510.1
2018-Jun-18 03:30N 33°43' W 119°60'510.2
2018-Jun-18 03:00N 33°43' W 119°54'510.3
2018-Jun-18 02:30N 33°43' W 119°48'510.9
2018-Jun-18 02:00N 33°43' W 119°41'611.4
2018-Jun-18 01:30N 33°42' W 119°34'611.3
2018-Jun-18 01:00N 33°42' W 119°27'611.4
2018-Jun-18 00:30N 33°42' W 119°21'611.4
2018-Jun-18 00:00N 33°41' W 119°14'510.6
2018-Jun-17 23:30N 33°41' W 119°07'510.5
2018-Jun-17 23:00N 33°41' W 119°01'510.8
2018-Jun-17 22:30N 33°40' W 118°55'2010.4
2018-Jun-17 20:32N 33°39' W 118°30'110.3
2018-Jun-17 20:29N 33°38' W 118°29'510.5
2018-Jun-17 20:00N 33°38' W 118°23'510.1
2018-Jun-17 19:30N 33°38' W 118°17'5 9.1
2018-Jun-17 19:01N 33°42' W 118°15'3 5.3
2018-Jun-17 18:30N 33°45' W 118°16'1 1.5
2018-Jun-17 18:00N 33°46' W 118°16'0 0.0
2018-Jun-17 17:29N 33°46' W 118°16'0 0.0
2018-Jun-17 16:59N 33°46' W 118°16'0 0.0
2018-Jun-17 16:29N 33°46' W 118°16'0 0.0
2018-Jun-17 15:59N 33°46' W 118°16'0 0.0
2018-Jun-17 15:23N 33°46' W 118°16'0 0.0
2018-Jun-17 14:59N 33°46' W 118°16'0 0.0
2018-Jun-17 14:29N 33°46' W 118°16'0 0.0
2018-Jun-17 13:59N 33°46' W 118°16'0 0.0
2018-Jun-17 13:29N 33°46' W 118°16'0 0.0
2018-Jun-17 12:59N 33°46' W 118°16'0 0.0
2018-Jun-17 12:29N 33°46' W 118°16'0 0.0
2018-Jun-17 11:59N 33°46' W 118°16'0 0.0
2018-Jun-17 11:29N 33°46' W 118°16'0 0.0
2018-Jun-17 10:59N 33°46' W 118°16'0 0.0
2018-Jun-17 10:29N 33°46' W 118°16'0 0.0
2018-Jun-17 09:56N 33°46' W 118°16'0 0.0
2018-Jun-17 09:29N 33°46' W 118°16'0 0.0
2018-Jun-17 08:59N 33°46' W 118°16'0 0.0
2018-Jun-17 08:29N 33°46' W 118°16'0 0.0
2018-Jun-17 07:59N 33°46' W 118°16'0 0.0
2018-Jun-17 07:26N 33°46' W 118°16'0 0.0
2018-Jun-17 06:59N 33°46' W 118°16'0 0.0
2018-Jun-17 06:29N 33°46' W 118°16'0 0.0
2018-Jun-17 05:59N 33°46' W 118°16'0 0.0
2018-Jun-17 05:29N 33°46' W 118°16'0 0.0
2018-Jun-17 04:59N 33°46' W 118°16'0 0.0
2018-Jun-17 04:29N 33°46' W 118°16'0 0.0
2018-Jun-17 03:59N 33°46' W 118°16'0 0.0
2018-Jun-17 03:29N 33°46' W 118°16'0 0.0
2018-Jun-17 02:59N 33°46' W 118°16'0 0.0
2018-Jun-17 02:28N 33°46' W 118°16'0 0.0
2018-Jun-17 01:58N 33°46' W 118°16'0 0.0
2018-Jun-17 01:28N 33°46' W 118°16'0 0.0
2018-Jun-17 00:58N 33°46' W 118°16'0 0.0
2018-Jun-17 00:28N 33°46' W 118°16'0 0.0
2018-Jun-16 23:58N 33°46' W 118°16'0 0.0
2018-Jun-16 23:28N 33°46' W 118°16'0 0.0
2018-Jun-16 22:58N 33°46' W 118°16'0 0.0
2018-Jun-16 22:28N 33°46' W 118°16'0 0.0
2018-Jun-16 21:58N 33°46' W 118°16'0 0.0
2018-Jun-16 21:19N 33°46' W 118°16'0 0.0
2018-Jun-16 20:55N 33°46' W 118°16'0 0.0
2018-Jun-16 20:28N 33°46' W 118°16'0 0.0
2018-Jun-16 19:58N 33°46' W 118°16'0 0.0
2018-Jun-16 19:28N 33°46' W 118°16'0 0.0
2018-Jun-16 18:58N 33°46' W 118°16'0 0.0
2018-Jun-16 18:30N 33°46' W 118°16'0 0.9
2018-Jun-16 18:00N 33°45' W 118°16'1 1.2
2018-Jun-16 17:30N 33°45' W 118°17'0 0.0
2018-Jun-16 16:59N 33°45' W 118°17'0 0.0
2018-Jun-16 16:29N 33°45' W 118°17'0 0.0
2018-Jun-16 15:59N 33°45' W 118°17'0 0.0
2018-Jun-16 15:29N 33°45' W 118°17'0 0.0
2018-Jun-16 14:56N 33°45' W 118°17'0 0.0
2018-Jun-16 14:29N 33°45' W 118°17'0 0.0
2018-Jun-16 13:56N 33°45' W 118°17'0 0.0
2018-Jun-16 13:29N 33°45' W 118°17'0 0.0
2018-Jun-16 12:56N 33°45' W 118°17'0 0.0
2018-Jun-16 12:29N 33°45' W 118°17'0 0.0
2018-Jun-16 11:59N 33°45' W 118°17'0 0.0
2018-Jun-16 11:29N 33°45' W 118°17'0 0.0
2018-Jun-16 10:59N 33°45' W 118°17'0 0.0
2018-Jun-16 10:29N 33°45' W 118°17'0 0.0
2018-Jun-16 09:59N 33°45' W 118°17'0 0.0
2018-Jun-16 09:29N 33°45' W 118°17'0 0.0
2018-Jun-16 08:59N 33°45' W 118°17'0 0.0
2018-Jun-16 08:29N 33°45' W 118°17'0 0.0
2018-Jun-16 07:59N 33°45' W 118°17'0 0.0
2018-Jun-16 07:29N 33°45' W 118°17'0 0.0
2018-Jun-16 06:59N 33°45' W 118°17'0 0.0
2018-Jun-16 06:26N 33°45' W 118°17'0 0.0
2018-Jun-16 05:59N 33°45' W 118°17'0 0.0
2018-Jun-16 05:29N 33°45' W 118°17'0 0.0
2018-Jun-16 04:59N 33°45' W 118°17'0 0.0
2018-Jun-16 04:29N 33°45' W 118°17'0 0.0
2018-Jun-16 03:59N 33°45' W 118°17'0 0.0
2018-Jun-16 03:29N 33°45' W 118°17'0 0.0
2018-Jun-16 02:59N 33°45' W 118°17'0 0.0
2018-Jun-16 02:29N 33°45' W 118°17'0 0.0
2018-Jun-16 01:59N 33°45' W 118°17'0 0.0
2018-Jun-16 01:29N 33°45' W 118°17'0 0.0
2018-Jun-16 00:59N 33°45' W 118°17'0 0.0
2018-Jun-16 00:29N 33°45' W 118°17'0 0.0
2018-Jun-15 23:56N 33°45' W 118°17'0 0.0
2018-Jun-15 23:29N 33°45' W 118°17'0 0.0
2018-Jun-15 22:59N 33°45' W 118°17'0 0.0
2018-Jun-15 22:29N 33°45' W 118°17'0 0.0
2018-Jun-15 21:59N 33°45' W 118°17'0 0.0
2018-Jun-15 21:29N 33°45' W 118°17'0 0.0
2018-Jun-15 20:59N 33°45' W 118°17'0 0.0
2018-Jun-15 20:29N 33°45' W 118°17'0 0.0
2018-Jun-15 19:59N 33°45' W 118°17'0 0.0
2018-Jun-15 19:30N 33°45' W 118°17'0 0.1
2018-Jun-15 19:00N 33°45' W 118°17'1 1.3
2018-Jun-15 18:31N 33°45' W 118°16'3 5.1
2018-Jun-15 18:00N 33°43' W 118°15'2 3.9
2018-Jun-15 17:28N 33°42' W 118°12'0 0.0
2018-Jun-15 16:55N 33°42' W 118°12'0 0.0
2018-Jun-15 16:25N 33°42' W 118°12'0 0.0
2018-Jun-15 15:58N 33°42' W 118°12'0 0.0
2018-Jun-15 15:25N 33°42' W 118°12'0 0.1
2018-Jun-15 14:58N 33°42' W 118°12'0 0.0
2018-Jun-15 14:28N 33°42' W 118°12'0 0.0
2018-Jun-15 13:58N 33°42' W 118°12'0 0.1
2018-Jun-15 13:22N 33°42' W 118°12'0 0.0
2018-Jun-15 12:55N 33°42' W 118°12'0 0.0
2018-Jun-15 12:28N 33°42' W 118°12'0 0.1
2018-Jun-15 11:58N 33°42' W 118°12'0 0.0
2018-Jun-15 11:28N 33°42' W 118°12'0 0.1
2018-Jun-15 10:58N 33°42' W 118°12'0 0.2
2018-Jun-15 10:28N 33°42' W 118°12'0 0.1
2018-Jun-15 09:58N 33°42' W 118°12'0 0.1
2018-Jun-15 09:28N 33°42' W 118°12'0 0.1
2018-Jun-15 08:58N 33°42' W 118°12'0 0.1
2018-Jun-15 08:28N 33°42' W 118°12'0 0.1
2018-Jun-15 07:58N 33°42' W 118°12'0 0.0
2018-Jun-15 07:25N 33°42' W 118°12'0 0.1
2018-Jun-15 06:55N 33°42' W 118°12'0 0.1
2018-Jun-15 06:25N 33°42' W 118°12'0 0.0
2018-Jun-15 05:58N 33°42' W 118°12'0 0.1
2018-Jun-15 05:28N 33°42' W 118°12'0 0.9
2018-Jun-15 05:00N 33°42' W 118°12'510.0
2018-Jun-15 04:30N 33°38' W 118°15'611.1
2018-Jun-15 03:55N 33°36' W 118°23'511.7
2018-Jun-15 03:30N 33°36' W 118°29'711.8
2018-Jun-15 02:54N 33°36' W 118°37'711.9
2018-Jun-15 02:20N 33°37' W 118°45'511.8
2018-Jun-15 01:56N 33°37' W 118°51'512.4
2018-Jun-15 01:30N 33°37' W 118°57'611.7
2018-Jun-15 01:00N 33°38' W 119°04'611.4
2018-Jun-15 00:30N 33°38' W 119°11'611.4
2018-Jun-15 00:00N 33°39' W 119°18'611.2
2018-Jun-14 23:30N 33°39' W 119°25'611.2
2018-Jun-14 23:00N 33°40' W 119°31'5 8.6
2018-Jun-14 22:24N 33°40' W 119°37'410.9
2018-Jun-14 22:00N 33°41' W 119°43'510.7
2018-Jun-14 21:30N 33°41' W 119°49'611.3
2018-Jun-14 20:59N 33°42' W 119°56'611.9
2018-Jun-14 20:30N 33°42' W 120°03'611.4
2018-Jun-14 19:59N 33°43' W 120°10'611.6
2018-Jun-14 19:30N 33°43' W 120°17'611.6
2018-Jun-14 19:00N 33°44' W 120°24'611.3
2018-Jun-14 18:30N 33°44' W 120°30'611.2
2018-Jun-14 18:00N 33°45' W 120°37'510.9
2018-Jun-14 17:30N 33°45' W 120°43'611.4
2018-Jun-14 17:00N 33°46' W 120°50'611.4
2018-Jun-14 16:30N 33°49' W 120°56'510.9
2018-Jun-14 16:00N 33°53' W 121°01'511.1
2018-Jun-14 15:30N 33°56' W 121°07'611.1
2018-Jun-14 15:00N 33°59' W 121°12'611.2
2018-Jun-14 14:30N 34°02' W 121°18'611.3
2018-Jun-14 14:00N 34°05' W 121°24'611.4
2018-Jun-14 13:30N 34°08' W 121°29'611.3
2018-Jun-14 13:00N 34°12' W 121°34'611.2
2018-Jun-14 12:30N 34°15' W 121°40'611.2
2018-Jun-14 12:00N 34°19' W 121°45'711.2
2018-Jun-14 11:22N 34°24' W 121°50'411.7
2018-Jun-14 11:00N 34°28' W 121°53'611.5
2018-Jun-14 10:30N 34°33' W 121°56'611.4
2018-Jun-14 10:00N 34°38' W 122°00'711.2
2018-Jun-14 09:24N 34°44' W 122°04'511.0
2018-Jun-14 09:00N 34°47' W 122°07'3711.3
2018-Jun-14 05:41N 35°20' W 122°30'1711.0
2018-Jun-14 04:08N 35°34' W 122°41'1211.4
2018-Jun-14 03:07N 35°44' W 122°48'511.5
2018-Jun-14 02:40N 35°49' W 122°51'311.5
2018-Jun-14 02:27N 35°51' W 122°52'9310.9
2018-Jun-13 17:55N 37°23' W 123°11'410.9
2018-Jun-13 17:30N 37°27' W 123°09'710.9
2018-Jun-13 16:51N 37°33' W 123°05'410.0
2018-Jun-13 16:30N 37°36' W 123°01'510.2
2018-Jun-13 16:00N 37°38' W 122°56'910.2
2018-Jun-13 15:09N 37°43' W 122°47'1 9.8
2018-Jun-13 15:00N 37°44' W 122°45'5 9.8
2018-Jun-13 14:30N 37°46' W 122°40'510.1
2018-Jun-13 14:00N 37°47' W 122°34'510.9
2018-Jun-13 13:30N 37°50' W 122°28'3 6.9
2018-Jun-13 13:00N 37°53' W 122°26'610.9
2018-Jun-13 12:30N 37°59' W 122°26'611.4
2018-Jun-13 11:59N 38°03' W 122°21'511.1
2018-Jun-13 11:30N 38°04' W 122°14'4 9.0
2018-Jun-13 11:00N 38°02' W 122°09'  

Dump ship's entire track history